This is the latest recevied weather packets stored in our database for station/object WP4PW. If no packets are shown the sender has not sent any weather packets the latest 10 day(s).
| Time | Temp. | Humidity | Pressure | Rain* | Wind** | Luminosity | Snow |
|---|---|---|---|---|---|---|---|
| 1778009209 | 30.56° C | 73% | 1020.6 hPa | 0 mm | - | 573 W/m² | - |
| 1778008901 | 31.11° C | 74% | 1020.4 hPa | 0 mm | - | 212 W/m² | - |
| 1778008599 | 30° C | 76% | 1020.5 hPa | 0 mm | - | 665 W/m² | - |
| 1778008298 | 30° C | 77% | 1020.7 hPa | 0 mm | - | 190 W/m² | - |
| 1778007993 | 29.44° C | 82% | 1020.6 hPa | 0 mm | - | 187 W/m² | - |
| 1778007693 | 29.44° C | 82% | 1020.8 hPa | 0 mm | - | 181 W/m² | - |
| 1778007390 | 30° C | 82% | 1020.8 hPa | 0 mm | - | 134 W/m² | - |
| 1778007086 | 30.56° C | 80% | 1020.6 hPa | 0 mm | - | 181 W/m² | - |
| 1778006783 | 31.67° C | 72% | 1020.7 hPa | 0 mm | - | 265 W/m² | - |
| 1778006480 | 31.11° C | 73% | 1020.6 hPa | 0 mm | - | 295 W/m² | - |
| 1778006176 | 31.11° C | 72% | 1020.6 hPa | 0 mm | - | 868 W/m² | - |
| 1778005874 | 31.11° C | 74% | 1020.9 hPa | 0 mm | - | 760 W/m² | - |
| 1778005570 | 31.11° C | 72% | 1020.8 hPa | 0 mm | - | 310 W/m² | - |
| 1778005267 | 31.11° C | 74% | 1021.1 hPa | 0 mm | - | 310 W/m² | - |
| 1778004964 | 30.56° C | 75% | 1021.1 hPa | 0 mm | - | 168 W/m² | - |
| 1778004661 | 30.56° C | 74% | 1021.2 hPa | 0 mm | - | 807 W/m² | - |
| 1778004356 | 31.11° C | 74% | 1021.3 hPa | 0 mm | - | 215 W/m² | - |
| 1778004055 | 32.22° C | 71% | 1021.3 hPa | 0 mm | - | 407 W/m² | - |
| 1778003750 | 30.56° C | 75% | 1021.4 hPa | 0 mm | - | 877 W/m² | - |
| 1778003447 | 31.11° C | 72% | 1021.4 hPa | 0 mm | - | 859 W/m² | - |
| 1778003144 | 31.11° C | 74% | 1021.4 hPa | 0 mm | - | 937 W/m² | - |
| 1778002839 | 31.11° C | 73% | 1021.4 hPa | 0 mm | - | 860 W/m² | - |
| 1778002536 | 30.56° C | 75% | 1021.7 hPa | 0 mm | - | 840 W/m² | - |
| 1778002233 | 31.11° C | 73% | 1021.5 hPa | 0 mm | - | 868 W/m² | - |
| 1778001931 | 30° C | 76% | 1021.7 hPa | 0 mm | - | 871 W/m² | - |
* Rain latest hour (hover to see other rain measurements)
** Current wind speed in m/s (hover to see current wind gust speed)